Time;durP1;ratioP1;P1;durP2;ratioP2;P2;SDS_P1;SDS_P2;PMS_P1;PMS_P2;Temp;Humidity;BMP_temperature;BMP_pressure;BME280_temperature;BME280_humidity;BME280_pressure;Samples;Min_cycle;Max_cycle;Signal;HPM_P1;HPM_P2
2022/12/13 00:01:51;;;;;;;3.63;2.65;;;;;;;-1.00;100.00;97265.22;10209746;28;20070;-58
2022/12/13 00:06:52;;;;;;;0.50;0.50;;;;;;;-1.18;100.00;97270.50;10210613;28;20115;-58
2022/12/13 00:11:52;;;;;;;0.30;0.30;;;;;;;-1.13;100.00;97275.78;10209739;28;20066;-58
2022/12/13 00:16:51;;;;;;;1.63;1.17;;;;;;;-1.33;100.00;97275.91;10209892;28;20089;-58
2022/12/13 00:21:50;;;;;;;0.73;0.73;;;;;;;-1.34;100.00;97288.56;10209788;28;20397;-58
2022/12/13 00:26:49;;;;;;;0.65;0.65;;;;;;;-1.26;100.00;97297.34;10208943;28;20035;-58
2022/12/13 00:31:48;;;;;;;0.20;0.20;;;;;;;-1.26;100.00;97310.97;10207818;28;20602;-58
2022/12/13 00:36:47;;;;;;;0.75;0.75;;;;;;;-1.28;100.00;97292.22;10207644;28;20503;-58
2022/12/13 00:41:46;;;;;;;0.47;0.47;;;;;;;-1.32;100.00;97309.84;10209570;28;20065;-58
2022/12/13 00:46:45;;;;;;;0.40;0.40;;;;;;;-1.40;100.00;97296.81;10206785;28;20122;-58
2022/12/13 00:51:44;;;;;;;;;;;;;;;-1.39;100.00;97312.97;10208452;28;20134;-58
2022/12/13 00:56:43;;;;;;;0.20;0.20;;;;;;;-1.24;100.00;97313.53;10207424;28;19945;-58
2022/12/13 01:01:42;;;;;;;1.10;1.00;;;;;;;-1.26;100.00;97295.69;10205986;28;20039;-58
2022/12/13 01:06:44;;;;;;;0.75;0.75;;;;;;;-1.19;100.00;97316.25;10205163;28;20124;-58
2022/12/13 01:11:44;;;;;;;0.63;0.63;;;;;;;-1.03;100.00;97305.84;10204478;28;20118;-58
2022/12/13 01:16:43;;;;;;;1.00;0.80;;;;;;;-1.06;100.00;97301.50;10207332;28;20069;-58
2022/12/13 01:21:42;;;;;;;0.35;0.35;;;;;;;-1.21;100.00;97303.50;10204644;28;20031;-58
2022/12/13 01:26:41;;;;;;;1.23;0.88;;;;;;;-1.20;100.00;97291.63;10219356;28;20050;-58
2022/12/13 01:31:40;;;;;;;1.48;1.05;;;;;;;-1.16;100.00;97303.66;10206130;28;20042;-58
2022/12/13 01:36:41;;;;;;;0.35;0.35;;;;;;;-1.15;100.00;97293.53;10203856;28;20125;-58
2022/12/13 01:41:43;;;;;;;1.27;1.17;;;;;;;-1.17;100.00;97302.78;10204795;28;20130;-58
2022/12/13 01:46:42;;;;;;;0.55;0.55;;;;;;;-1.12;100.00;97310.59;10204439;28;20137;-58
2022/12/13 01:51:55;;;;;;;1.27;1.27;;;;;;;-1.13;100.00;97312.28;10204530;28;20116;-58
2022/12/13 01:56:55;;;;;;;0.90;0.90;;;;;;;-1.18;100.00;97320.56;10203784;28;20507;-58
2022/12/13 02:01:54;;;;;;;0.47;0.47;;;;;;;-1.15;100.00;97324.06;10203248;28;20185;-58
2022/12/13 02:06:55;;;;;;;0.45;0.45;;;;;;;-1.27;100.00;97329.56;10204752;28;20134;-58
2022/12/13 02:11:54;;;;;;;0.30;0.30;;;;;;;-1.29;100.00;97320.13;10204385;28;20070;-58
2022/12/13 02:17:18;;;;;;;0.82;0.82;;;;;;;-1.43;100.00;97332.34;10204065;28;20050;-58
2022/12/13 02:22:35;;;;;;;0.38;0.38;;;;;;;-1.56;100.00;97309.75;10203850;28;20093;-58
2022/12/13 02:27:53;;;;;;;0.30;0.30;;;;;;;-1.53;99.05;97345.53;10203965;28;20816;-57
2022/12/13 02:33:03;;;;;;;2.45;2.25;;;;;;;-1.64;99.37;97335.75;10208570;28;20058;-58
2022/12/13 02:38:13;;;;;;;0.75;0.75;;;;;;;-1.60;100.00;97343.53;10218262;28;20062;-57
2022/12/13 02:43:31;;;;;;;0.45;0.45;;;;;;;-1.57;100.00;97348.75;10216176;28;20157;-58
2022/12/13 02:48:38;;;;;;;0.52;0.52;;;;;;;-1.60;100.00;97354.56;10215787;28;20117;-58
2022/12/13 02:53:40;;;;;;;0.82;0.82;;;;;;;-1.75;100.00;97352.31;10216929;28;20576;-58
2022/12/13 02:58:48;;;;;;;1.00;1.00;;;;;;;-1.75;100.00;97362.47;10215961;28;20146;-58
2022/12/13 03:04:00;;;;;;;0.47;0.47;;;;;;;-1.95;100.00;97351.47;10216151;28;20142;-58
2022/12/13 03:09:11;;;;;;;0.50;0.50;;;;;;;-1.91;99.83;97347.41;10216799;28;20130;-59
2022/12/13 03:14:12;;;;;;;1.00;1.00;;;;;;;-1.95;100.00;97355.69;10218401;28;20057;-59
2022/12/13 03:19:12;;;;;;;0.25;0.25;;;;;;;-2.01;99.68;97360.50;10216597;28;21227;-59
2022/12/13 03:24:11;;;;;;;0.90;0.68;;;;;;;-2.04;98.51;97355.31;10218319;28;20065;-59
2022/12/13 03:29:11;;;;;;;1.20;0.75;;;;;;;-2.12;99.79;97360.09;10216066;28;20511;-59
2022/12/13 03:34:10;;;;;;;0.50;0.50;;;;;;;-2.17;98.58;97357.34;10217682;28;20833;-59
2022/12/13 03:39:09;;;;;;;1.25;1.05;;;;;;;-2.28;98.61;97367.06;10216569;28;20770;-59
2022/12/13 03:44:08;;;;;;;0.22;0.22;;;;;;;-2.24;98.76;97360.44;10216495;28;20150;-59
2022/12/13 03:49:07;;;;;;;0.52;0.52;;;;;;;-2.30;98.33;97357.63;10211281;28;20222;-59
2022/12/13 03:54:06;;;;;;;1.52;1.42;;;;;;;-2.22;98.15;97353.72;10212243;28;20050;-60
2022/12/13 03:59:05;;;;;;;0.95;0.88;;;;;;;-2.19;98.18;97366.59;10242506;28;20050;-59
2022/12/13 04:04:04;;;;;;;0.35;0.35;;;;;;;-2.21;98.30;97360.56;10209249;28;20137;-59
2022/12/13 04:09:03;;;;;;;0.50;0.50;;;;;;;-2.22;97.83;97368.09;10209987;28;20041;-59
2022/12/13 04:14:02;;;;;;;0.40;0.40;;;;;;;-2.09;98.89;97381.41;10209713;28;20023;-59
2022/12/13 04:19:01;;;;;;;0.30;0.30;;;;;;;-2.03;98.45;97382.47;10207860;28;20404;-59
2022/12/13 04:24:00;;;;;;;1.55;1.48;;;;;;;-1.92;98.83;97379.56;10210426;28;20124;-59
2022/12/13 04:28:59;;;;;;;1.90;1.15;;;;;;;-1.93;98.80;97400.72;10206034;28;20996;-58
2022/12/13 04:33:58;;;;;;;0.50;0.50;;;;;;;-1.85;99.00;97398.50;10210305;28;20070;-59
2022/12/13 04:38:56;;;;;;;0.38;0.38;;;;;;;-1.88;98.93;97404.31;10208878;28;20031;-59
2022/12/13 04:43:55;;;;;;;0.63;0.63;;;;;;;-1.89;98.88;97401.69;10206946;28;20041;-58
2022/12/13 04:48:54;;;;;;;1.75;1.55;;;;;;;-1.90;98.47;97415.22;10206720;28;20158;-59
2022/12/13 04:53:53;;;;;;;0.32;0.32;;;;;;;-1.84;98.91;97415.50;10208347;28;20039;-59
2022/12/13 04:58:52;;;;;;;1.48;1.42;;;;;;;-1.78;99.40;97425.91;10208314;28;20409;-59
2022/12/13 05:03:52;;;;;;;0.93;0.93;;;;;;;-1.90;98.42;97435.56;10207876;28;20069;-59
2022/12/13 05:08:51;;;;;;;1.38;1.27;;;;;;;-1.92;98.78;97427.00;10208465;28;20089;-59
2022/12/13 05:13:49;;;;;;;0.70;0.70;;;;;;;-1.95;99.15;97437.94;10207339;28;20114;-59
2022/12/13 05:18:48;;;;;;;1.08;1.00;;;;;;;-1.89;99.15;97438.19;10207962;28;20057;-59
2022/12/13 05:23:47;;;;;;;0.50;0.50;;;;;;;-1.76;99.37;97446.34;10208694;28;20134;-59
2022/12/13 05:28:46;;;;;;;16.63;1.33;;;;;;;-1.91;98.75;97444.88;10206643;28;20102;-58
2022/12/13 05:33:45;;;;;;;0.40;0.40;;;;;;;-1.82;99.13;97449.50;10207497;28;20022;-58
2022/12/13 05:38:44;;;;;;;2.17;2.00;;;;;;;-1.75;98.98;97450.59;10205255;28;20496;-58
2022/12/13 05:43:43;;;;;;;0.47;0.47;;;;;;;-1.71;99.11;97455.03;10207796;28;20051;-58
2022/12/13 05:48:43;;;;;;;2.17;2.08;;;;;;;-1.73;98.13;97454.94;10205095;28;20118;-58
2022/12/13 05:53:42;;;;;;;0.93;0.93;;;;;;;-1.85;97.99;97467.16;10200392;28;20599;-58
2022/12/13 05:58:41;;;;;;;2.35;1.63;;;;;;;-1.91;97.40;97484.72;10206546;28;20485;-58
2022/12/13 06:03:41;;;;;;;5.43;4.05;;;;;;;-1.91;97.40;97492.34;10206815;28;20070;-58
2022/12/13 06:08:40;;;;;;;6.85;4.72;;;;;;;-1.93;97.32;97489.72;10205206;28;20054;-58
2022/12/13 06:13:40;;;;;;;1.75;1.52;;;;;;;-1.86;97.87;97485.78;10204561;28;20077;-58
2022/12/13 06:18:39;;;;;;;4.45;1.88;;;;;;;-1.76;96.93;97492.97;10204602;28;20077;-58
2022/12/13 06:23:38;;;;;;;3.50;3.00;;;;;;;-1.66;97.84;97486.59;10204771;28;20129;-58
2022/12/13 06:28:37;;;;;;;1.40;1.40;;;;;;;-1.70;97.02;97484.75;10204992;28;20027;-58
2022/12/13 06:33:37;;;;;;;2.05;1.95;;;;;;;-1.67;97.50;97502.69;10205800;28;20126;-58
2022/12/13 06:38:36;;;;;;;7.40;1.88;;;;;;;-1.53;97.66;97493.09;10206427;28;20062;-58
2022/12/13 06:43:36;;;;;;;2.08;1.98;;;;;;;-1.35;97.87;97501.50;10206115;28;20067;-58
2022/12/13 06:48:35;;;;;;;1.08;1.02;;;;;;;-1.45;96.67;97512.09;10203596;28;20154;-58
2022/12/13 06:53:36;;;;;;;1.13;1.08;;;;;;;-1.39;97.46;97507.25;10204172;28;20132;-58
2022/12/13 06:58:35;;;;;;;2.65;2.25;;;;;;;-1.24;98.15;97509.56;10204256;28;20062;-58
2022/12/13 07:03:35;;;;;;;2.58;2.38;;;;;;;-1.06;98.68;97522.19;10201374;28;20097;-58
2022/12/13 07:08:34;;;;;;;2.00;1.65;;;;;;;-1.01;96.87;97520.69;10201368;28;20146;-58
2022/12/13 07:13:34;;;;;;;2.08;1.33;;;;;;;-0.97;97.49;97527.66;10202842;28;20587;-58
2022/12/13 07:18:32;;;;;;;2.15;2.00;;;;;;;-1.00;95.87;97537.72;10204505;28;20070;-58
2022/12/13 07:23:33;;;;;;;1.10;1.10;;;;;;;-1.09;95.30;97522.94;10199523;28;20468;-58
2022/12/13 07:28:36;;;;;;;2.88;2.63;;;;;;;-0.96;96.12;97525.97;10208403;28;20118;-58
2022/12/13 07:33:35;;;;;;;2.45;1.38;;;;;;;-0.97;94.13;97524.25;10208172;28;20126;-58
2022/12/13 07:38:35;;;;;;;0.75;0.75;;;;;;;-1.06;92.47;97533.22;10204967;28;20158;-58
2022/12/13 07:43:35;;;;;;;2.60;2.40;;;;;;;-1.02;92.69;97541.88;10209806;28;20130;-58
2022/12/13 07:48:34;;;;;;;1.60;1.52;;;;;;;-0.78;94.65;97538.56;10209361;28;20134;-58
2022/12/13 07:53:33;;;;;;;0.43;0.43;;;;;;;-1.04;89.06;97543.50;10209668;28;20486;-58
2022/12/13 07:58:33;;;;;;;2.40;1.08;;;;;;;-1.27;90.40;97555.25;10203282;28;20596;-58
2022/12/13 08:03:32;;;;;;;;;;;;;;;-1.45;88.85;97560.44;10208173;28;20142;-58
2022/12/13 08:08:31;;;;;;;0.40;0.40;;;;;;;-1.27;91.35;97561.22;10208301;28;20582;-58
2022/12/13 08:13:31;;;;;;;3.08;1.85;;;;;;;-0.98;92.80;97558.13;10208385;28;20117;-58
2022/12/13 08:18:31;;;;;;;3.95;2.42;;;;;;;-0.77;92.53;97558.13;10207085;28;20125;-58
2022/12/13 08:23:32;;;;;;;5.13;4.50;;;;;;;-0.60;93.75;97558.00;10206930;28;20100;-58
2022/12/13 08:28:33;;;;;;;3.67;2.42;;;;;;;-0.50;92.74;97566.88;10206672;28;20706;-58
2022/12/13 08:33:33;;;;;;;2.30;2.20;;;;;;;-0.62;90.91;97568.94;10204667;28;20102;-58
2022/12/13 08:38:32;;;;;;;2.83;2.58;;;;;;;-0.47;92.85;97569.53;10205214;28;20070;-58
2022/12/13 08:43:31;;;;;;;0.60;0.60;;;;;;;-0.32;91.39;97561.63;10205120;28;20133;-57
2022/12/13 08:48:30;;;;;;;2.00;1.67;;;;;;;-0.29;91.96;97561.75;10213290;28;20054;-58
2022/12/13 08:53:29;;;;;;;;;;;;;;;-0.29;90.48;97546.44;10211848;28;20058;-58
2022/12/13 08:58:28;;;;;;;0.52;0.52;;;;;;;-0.07;92.00;97530.25;10212449;28;19910;-58
2022/12/13 09:03:27;;;;;;;1.10;1.10;;;;;;;0.29;88.34;97532.41;10212877;28;20073;-58
2022/12/13 09:08:26;;;;;;;0.73;0.73;;;;;;;0.11;86.43;97537.72;10198811;28;20122;-58
2022/12/13 09:13:30;;;;;;;1.67;1.58;;;;;;;-0.05;86.02;97538.84;10199139;28;20023;-59
2022/12/13 09:18:29;;;;;;;1.20;1.05;;;;;;;-0.29;86.11;97528.59;10210383;28;20061;-59
2022/12/13 09:23:28;;;;;;;0.52;0.52;;;;;;;-0.14;85.32;97514.69;10212643;28;20042;-59
2022/12/13 09:28:30;;;;;;;0.88;0.88;;;;;;;-0.42;86.22;97516.19;10211158;28;20030;-57
2022/12/13 09:33:29;;;;;;;0.63;0.63;;;;;;;-0.33;85.93;97510.56;10200978;28;20759;-57
2022/12/13 09:38:29;;;;;;;1.48;1.33;;;;;;;-0.65;83.69;97506.00;10207345;28;20678;-58
2022/12/13 09:43:32;;;;;;;0.32;0.32;;;;;;;-0.52;87.02;97492.03;10200314;28;20552;-58
2022/12/13 09:48:32;;;;;;;1.65;0.95;;;;;;;-0.74;84.35;97495.44;10208436;28;20114;-59
2022/12/13 09:53:31;;;;;;;1.55;1.48;;;;;;;-0.84;86.46;97486.59;10206071;28;20062;-58
2022/12/13 09:58:30;;;;;;;3.58;3.35;;;;;;;-0.80;86.87;97475.69;10209036;28;20037;-58
2022/12/13 10:03:29;;;;;;;0.82;0.82;;;;;;;-0.73;86.89;97483.56;10205570;28;20075;-58
2022/12/13 10:08:39;;;;;;;1.50;1.40;;;;;;;-0.72;86.77;97478.53;10209460;28;20089;-58
2022/12/13 10:13:44;;;;;;;0.20;0.20;;;;;;;-1.00;80.45;97471.50;10202416;28;20074;-58
2022/12/13 10:18:43;;;;;;;2.97;1.80;;;;;;;-0.75;87.49;97462.25;10198873;28;20062;-58
2022/12/13 10:23:42;;;;;;;1.33;1.10;;;;;;;-0.65;87.50;97454.13;10208357;28;20505;-58
2022/12/13 10:28:42;;;;;;;3.92;3.15;;;;;;;-0.45;84.96;97457.44;10196254;28;20878;-58
2022/12/13 10:33:54;;;;;;;0.55;0.55;;;;;;;-0.48;84.97;97447.16;10167774;28;20069;-58
2022/12/13 10:38:53;;;;;;;1.55;0.93;;;;;;;-0.67;83.63;97427.75;10175165;28;20066;-58
2022/12/13 10:44:10;;;;;;;0.68;0.68;;;;;;;-0.59;85.89;97431.44;10189673;28;20041;-57
2022/12/13 10:49:24;;;;;;;0.90;0.90;;;;;;;-0.39;87.38;97427.97;10207240;28;20059;-57
2022/12/13 10:54:30;;;;;;;6.97;2.83;;;;;;;-0.24;88.50;97421.69;10207890;28;20062;-57
2022/12/13 10:59:37;;;;;;;1.10;1.10;;;;;;;-0.34;83.59;97409.41;10217825;28;20450;-57
2022/12/13 11:04:36;;;;;;;5.07;4.68;;;;;;;-0.19;87.01;97397.19;10215671;28;20062;-57
2022/12/13 11:09:35;;;;;;;1.17;1.17;;;;;;;0.04;88.26;97409.06;10215413;28;20766;-58
2022/12/13 11:14:38;;;;;;;1.55;1.48;;;;;;;0.20;87.86;97397.72;10216499;28;20065;-58
2022/12/13 11:19:59;;;;;;;2.08;1.10;;;;;;;0.05;85.68;97395.50;10216987;28;20062;-58
2022/12/13 11:25:08;;;;;;;1.35;1.25;;;;;;;0.12;87.21;97391.47;10217313;28;20085;-58
2022/12/13 11:30:16;;;;;;;0.30;0.30;;;;;;;0.09;85.94;97380.31;10215355;28;20073;-58
2022/12/13 11:35:17;;;;;;;0.22;0.22;;;;;;;0.06;84.14;97386.19;10216577;28;20467;-58
2022/12/13 11:40:24;;;;;;;0.38;0.38;;;;;;;-0.13;82.90;97369.38;10215574;28;20772;-57
2022/12/13 11:45:30;;;;;;;4.78;1.00;;;;;;;-0.16;82.56;97369.25;10211394;28;20066;-58
2022/12/13 11:50:51;;;;;;;7.88;1.42;;;;;;;-0.13;84.07;97351.53;10216051;28;20058;-57
2022/12/13 11:56:07;;;;;;;0.60;0.60;;;;;;;-0.04;83.01;97368.81;10176488;28;20082;-57
2022/12/13 12:01:13;;;;;;;2.72;1.40;;;;;;;-0.03;82.53;97370.56;10178183;28;20492;-57
2022/12/13 12:06:19;;;;;;;0.98;0.77;;;;;;;0.01;82.74;97354.53;10211714;28;20062;-57
2022/12/13 12:11:46;;;;;;;0.70;0.70;;;;;;;0.14;84.30;97341.34;10215398;28;20833;-57
2022/12/13 12:16:50;;;;;;;1.38;1.30;;;;;;;0.36;85.79;97348.06;10214039;28;20058;-58
2022/12/13 12:21:52;;;;;;;3.70;2.67;;;;;;;0.47;83.68;97338.16;10215076;28;20069;-57
2022/12/13 12:27:14;;;;;;;0.60;0.60;;;;;;;0.49;83.47;97341.63;10213434;28;20450;-57
2022/12/13 12:32:37;;;;;;;3.53;3.10;;;;;;;0.58;85.01;97343.63;10215123;28;20066;-57
2022/12/13 12:38:07;;;;;;;0.43;0.43;;;;;;;0.55;84.31;97356.31;10212647;28;20488;-57
2022/12/13 12:43:05;;;;;;;0.30;0.30;;;;;;;0.32;82.55;97358.97;10213495;28;20066;-57
2022/12/13 12:48:29;;;;;;;1.13;1.13;;;;;;;0.26;83.04;97361.31;10213237;28;20045;-56
2022/12/13 12:53:42;;;;;;;0.47;0.47;;;;;;;0.33;84.34;97370.03;10213929;28;20478;-57
2022/12/13 12:58:50;;;;;;;0.50;0.50;;;;;;;0.42;84.56;97358.44;10213107;28;20058;-57
2022/12/13 13:03:51;;;;;;;15.32;1.92;;;;;;;0.51;84.72;97360.44;10212581;28;20075;-57
2022/12/13 13:08:58;;;;;;;0.40;0.40;;;;;;;0.52;84.45;97344.28;10212169;28;20065;-57
2022/12/13 13:13:56;;;;;;;5.88;2.83;;;;;;;0.60;84.73;97358.16;10204995;28;20086;-57
2022/12/13 13:18:57;;;;;;;2.15;2.05;;;;;;;0.72;86.03;97370.44;10198433;28;20023;-57
2022/12/13 13:24:11;;;;;;;1.63;1.17;;;;;;;0.72;86.42;97365.34;10212130;28;20834;-57
2022/12/13 13:29:25;;;;;;;1.15;1.15;;;;;;;0.72;86.51;97364.47;10208323;28;20081;-57
2022/12/13 13:34:39;;;;;;;0.30;0.30;;;;;;;0.76;86.52;97377.41;10211012;28;20066;-57
2022/12/13 13:39:54;;;;;;;3.33;3.03;;;;;;;0.77;87.08;97398.69;10215459;28;20062;-57
2022/12/13 13:45:02;;;;;;;3.92;1.95;;;;;;;0.80;87.52;97415.00;10210930;28;20457;-57
2022/12/13 13:50:09;;;;;;;1.88;0.75;;;;;;;0.72;87.64;97415.56;10210032;28;20070;-57
2022/12/13 13:55:28;;;;;;;1.25;1.20;;;;;;;0.58;88.29;97426.19;10208877;28;20077;-57
2022/12/13 14:00:45;;;;;;;1.55;1.45;;;;;;;0.55;87.93;97418.44;10205007;28;20520;-57
2022/12/13 14:06:06;;;;;;;1.70;1.52;;;;;;;0.51;88.37;97420.84;10204449;28;20085;-57
2022/12/13 14:11:26;;;;;;;5.72;5.15;;;;;;;0.45;88.64;97417.28;10210693;28;20074;-57
2022/12/13 14:16:58;;;;;;;4.90;3.40;;;;;;;0.38;89.04;97404.22;10209727;28;20080;-57
2022/12/13 14:22:15;;;;;;;2.55;2.35;;;;;;;0.17;90.09;97404.38;10204529;28;20850;-58
2022/12/13 14:27:27;;;;;;;2.20;1.98;;;;;;;0.01;90.50;97387.72;10209615;28;20066;-57
2022/12/13 14:32:35;;;;;;;1.90;1.80;;;;;;;-0.10;90.58;97389.88;10199464;28;20429;-57
2022/12/13 14:37:36;;;;;;;6.68;3.42;;;;;;;-0.19;91.13;97409.94;10197450;28;20125;-57
2022/12/13 14:42:35;;;;;;;4.05;1.83;;;;;;;-0.25;91.28;97414.81;10203689;28;20066;-57
2022/12/13 14:47:35;;;;;;;1.13;1.13;;;;;;;-0.39;91.58;97407.56;10203406;28;20018;-57
2022/12/13 14:52:38;;;;;;;1.13;1.13;;;;;;;-0.52;91.95;97400.28;10206012;28;20615;-57
2022/12/13 14:57:37;;;;;;;7.32;4.25;;;;;;;-0.63;92.19;97393.91;10204512;28;20070;-57
2022/12/13 15:02:36;;;;;;;4.95;4.20;;;;;;;-0.79;93.46;97389.94;10204158;28;20145;-57
2022/12/13 15:07:40;;;;;;;14.57;3.28;;;;;;;-0.85;93.67;97390.56;10199332;28;20122;-57
2022/12/13 15:12:41;;;;;;;4.20;3.22;;;;;;;-0.91;94.00;97405.63;10204984;28;20433;-57
2022/12/13 15:17:41;;;;;;;2.00;1.90;;;;;;;-0.99;93.97;97409.56;10198820;28;20081;-57
2022/12/13 15:22:40;;;;;;;7.57;6.95;;;;;;;-1.13;94.82;97420.91;10203661;28;20085;-57
2022/12/13 15:27:39;;;;;;;4.82;4.30;;;;;;;-1.22;95.31;97444.31;10196201;28;20068;-57
2022/12/13 15:33:18;;;;;;;1.85;1.73;;;;;;;-1.29;94.95;97440.63;10205547;28;20067;-57
2022/12/13 15:38:19;;;;;;;14.10;3.72;;;;;;;-1.36;94.97;97459.03;10200567;28;20113;-57
2022/12/13 15:43:21;;;;;;;2.58;2.38;;;;;;;-1.46;95.66;97439.09;10212985;28;20084;-57
2022/12/13 15:48:31;;;;;;;1.25;0.98;;;;;;;-1.46;95.64;97445.06;10213034;28;20110;-57
2022/12/13 15:53:31;;;;;;;2.22;1.98;;;;;;;-1.56;95.38;97430.22;10203578;28;20066;-58
2022/12/13 15:58:35;;;;;;;2.30;2.20;;;;;;;-1.53;96.22;97447.31;10206774;28;20677;-58
2022/12/13 16:03:41;;;;;;;4.40;4.00;;;;;;;-1.59;96.33;97437.72;10205193;28;20453;-58
2022/12/13 16:08:40;;;;;;;3.30;3.05;;;;;;;-1.61;95.75;97448.63;10209330;28;20067;-58
2022/12/13 16:13:39;;;;;;;1.92;1.48;;;;;;;-1.68;95.76;97450.06;10217238;28;20078;-58
2022/12/13 16:18:44;;;;;;;0.93;0.93;;;;;;;-1.70;96.33;97451.69;10215121;28;20042;-58
2022/12/13 16:23:43;;;;;;;1.00;1.00;;;;;;;-1.74;96.71;97448.13;10203586;28;20154;-57
2022/12/13 16:28:42;;;;;;;3.40;3.08;;;;;;;-1.88;96.69;97459.41;10209047;28;20046;-57
2022/12/13 16:33:41;;;;;;;1.45;1.42;;;;;;;-2.01;98.15;97455.44;10203107;28;20202;-58
2022/12/13 16:38:40;;;;;;;;;;;;;;;-2.03;97.34;97448.56;10207652;28;20058;-58
2022/12/13 16:43:51;;;;;;;2.40;1.42;;;;;;;-2.10;97.34;97442.34;10206960;28;19965;-57
2022/12/13 16:48:51;;;;;;;2.42;2.33;;;;;;;-2.10;97.72;97434.72;10205709;28;20520;-58
2022/12/13 16:53:50;;;;;;;2.95;2.78;;;;;;;-2.08;97.93;97446.72;10198184;28;20504;-58
2022/12/13 16:58:49;;;;;;;4.38;3.10;;;;;;;-2.06;97.75;97446.75;10174474;28;20509;-57
2022/12/13 17:03:48;;;;;;;1.98;1.88;;;;;;;-2.01;97.97;97436.78;10173874;28;20886;-58
2022/12/13 17:08:47;;;;;;;4.43;4.03;;;;;;;-2.02;98.12;97445.22;10178215;28;20051;-57
2022/12/13 17:13:48;;;;;;;0.88;0.88;;;;;;;-2.02;98.46;97456.28;10199708;28;20465;-58
2022/12/13 17:18:48;;;;;;;6.85;3.22;;;;;;;-2.00;98.19;97457.22;10171897;28;20070;-58
2022/12/13 17:23:47;;;;;;;3.28;3.00;;;;;;;-1.99;98.64;97470.78;10176677;28;20078;-58
2022/12/13 17:28:47;;;;;;;4.45;3.65;;;;;;;-2.04;98.21;97464.63;10172185;29;20077;-58
2022/12/13 17:33:46;;;;;;;2.47;2.33;;;;;;;-2.04;98.43;97457.00;10186307;28;20070;-58
2022/12/13 17:38:46;;;;;;;3.65;3.35;;;;;;;-2.16;98.13;97462.44;10175317;28;20073;-58
2022/12/13 17:43:45;;;;;;;1.17;1.17;;;;;;;-2.21;98.16;97459.69;10188385;28;20074;-58
2022/12/13 17:48:44;;;;;;;3.08;2.90;;;;;;;-2.45;99.56;97453.50;10211249;28;20038;-58
2022/12/13 17:53:43;;;;;;;;;;;;;;;-2.48;99.68;97439.00;10211104;28;20066;-58
2022/12/13 17:58:42;;;;;;;2.17;2.08;;;;;;;-2.45;99.27;97444.22;10211528;28;20002;-58
2022/12/13 18:03:42;;;;;;;2.03;1.92;;;;;;;-2.43;99.23;97446.81;10196595;28;20090;-58
2022/12/13 18:08:43;;;;;;;3.50;3.30;;;;;;;-2.47;99.37;97447.50;10172046;28;20085;-58
2022/12/13 18:13:42;;;;;;;4.22;2.92;;;;;;;-2.59;99.45;97442.72;10172887;28;20081;-58
2022/12/13 18:18:41;;;;;;;;;;;;;;;-2.58;99.21;97458.03;10171491;29;20062;-58
2022/12/13 18:23:40;;;;;;;3.78;3.58;;;;;;;-2.66;99.34;97455.94;10172042;28;20020;-58
2022/12/13 18:28:40;;;;;;;4.57;4.00;;;;;;;-2.70;99.05;97460.03;10171113;28;20079;-57
2022/12/13 18:33:39;;;;;;;1.42;1.35;;;;;;;-2.68;99.10;97471.13;10171739;28;20503;-58
2022/12/13 18:38:38;;;;;;;6.15;4.55;;;;;;;-2.65;99.47;97475.47;10169461;28;20482;-58
2022/12/13 18:43:37;;;;;;;7.90;7.18;;;;;;;-2.64;99.68;97467.94;10187940;28;20073;-57
2022/12/13 18:48:36;;;;;;;6.40;5.82;;;;;;;-2.62;99.27;97465.44;10210077;28;20073;-58
2022/12/13 18:53:36;;;;;;;;;;;;;;;-2.62;99.31;97471.38;10208742;28;20090;-58
2022/12/13 18:58:36;;;;;;;3.33;3.08;;;;;;;-2.58;99.49;97478.34;10210066;28;20347;-57
2022/12/13 19:03:36;;;;;;;6.97;6.38;;;;;;;-2.53;99.70;97466.72;10195256;28;20090;-57
2022/12/13 19:08:35;;;;;;;7.15;5.95;;;;;;;-2.44;100.00;97480.66;10170035;29;20486;-58
2022/12/13 19:13:34;;;;;;;5.85;5.13;;;;;;;-2.32;99.58;97484.63;10184218;28;20548;-57
2022/12/13 19:18:34;;;;;;;6.55;4.75;;;;;;;-2.23;100.00;97481.63;10176730;28;20449;-58
2022/12/13 19:23:33;;;;;;;14.73;4.30;;;;;;;-2.10;100.00;97473.75;10178501;28;20070;-58
2022/12/13 19:28:33;;;;;;;3.70;3.50;;;;;;;-1.98;100.00;97468.31;10178928;28;20071;-58
2022/12/13 19:33:32;;;;;;;7.55;6.97;;;;;;;-1.90;100.00;97461.88;10178362;28;20471;-58
2022/12/13 19:38:32;;;;;;;;;;;;;;;-1.78;99.45;97468.28;10174799;28;20059;-58
2022/12/13 19:43:31;;;;;;;1.60;1.50;;;;;;;-1.95;100.00;97454.88;10186643;28;20906;-58
2022/12/13 19:48:31;;;;;;;7.20;3.50;;;;;;;-1.79;100.00;97469.97;10214692;28;20077;-58
2022/12/13 19:53:30;;;;;;;6.45;5.85;;;;;;;-1.78;100.00;97461.53;10198817;28;20074;-58
2022/12/13 19:58:29;;;;;;;5.15;4.75;;;;;;;-1.71;100.00;97463.53;10176481;29;20071;-58
2022/12/13 20:03:36;;;;;;;5.35;4.85;;;;;;;-1.68;100.00;97458.59;10177204;28;20142;-58
2022/12/13 20:08:35;;;;;;;6.55;5.68;;;;;;;-1.76;99.54;97477.72;10175749;29;20086;-58
2022/12/13 20:13:34;;;;;;;6.28;5.80;;;;;;;-1.81;100.00;97474.13;10181231;28;20073;-58
2022/12/13 20:18:34;;;;;;;5.20;4.15;;;;;;;-1.81;99.64;97475.81;10215957;28;20139;-58
2022/12/13 20:23:34;;;;;;;4.93;4.53;;;;;;;-1.79;99.96;97475.06;10198672;28;20085;-57
2022/12/13 20:28:33;;;;;;;6.43;5.85;;;;;;;-1.76;99.70;97480.25;10174069;28;20063;-57
2022/12/13 20:33:32;;;;;;;3.85;2.75;;;;;;;-1.74;100.00;97488.84;10175976;28;20042;-58
2022/12/13 20:38:32;;;;;;;4.53;4.13;;;;;;;-1.73;99.97;97477.84;10174428;29;20078;-58
2022/12/13 20:43:33;;;;;;;2.95;2.63;;;;;;;-1.76;100.00;97470.09;10189337;28;20063;-57
2022/12/13 20:48:43;;;;;;;3.65;2.97;;;;;;;-1.82;100.00;97469.84;10215735;28;20077;-58
2022/12/13 20:53:45;;;;;;;6.28;3.95;;;;;;;-1.79;100.00;97462.34;10192941;28;20067;-57
2022/12/13 20:58:44;;;;;;;7.85;2.97;;;;;;;-1.78;100.00;97466.59;10174048;29;20074;-57
2022/12/13 21:03:43;;;;;;;;;;;;;;;-1.71;99.81;97468.59;10175008;28;20078;-59
2022/12/13 21:08:51;;;;;;;1.40;1.23;;;;;;;-1.58;100.00;97453.88;10176937;28;21318;-57
2022/12/13 21:13:50;;;;;;;1.35;1.25;;;;;;;-1.59;99.82;97447.03;10170727;28;20077;-58
2022/12/13 21:18:55;;;;;;;0.90;0.90;;;;;;;-1.73;99.67;97462.56;10210100;28;20042;-58
2022/12/13 21:23:55;;;;;;;6.13;3.65;;;;;;;-1.70;99.91;97470.38;10172860;29;20066;-57
2022/12/13 21:28:56;;;;;;;4.47;3.30;;;;;;;-1.72;99.99;97455.84;10172227;28;20121;-57
2022/12/13 21:33:57;;;;;;;1.38;1.38;;;;;;;-1.65;99.91;97451.06;10172575;28;20079;-57
2022/12/13 21:38:59;;;;;;;1.27;1.27;;;;;;;-1.69;99.61;97438.16;10175421;28;20062;-57
2022/12/13 21:43:58;;;;;;;2.53;2.33;;;;;;;-1.59;99.53;97458.06;10208662;28;20721;-57
2022/12/13 21:48:58;;;;;;;2.80;2.55;;;;;;;-1.61;98.82;97456.28;10201679;28;20480;-57
2022/12/13 21:53:58;;;;;;;2.95;2.75;;;;;;;-1.69;98.65;97454.28;10206954;28;20070;-57
2022/12/13 21:59:16;;;;;;;2.50;2.40;;;;;;;-1.71;98.84;97473.69;10202730;28;20584;-57
2022/12/13 22:04:16;;;;;;;5.82;3.47;;;;;;;-1.74;99.17;97458.31;10208350;28;20075;-57
2022/12/13 22:09:15;;;;;;;1.85;1.77;;;;;;;-1.61;100.00;97472.41;10206230;28;20085;-57
2022/12/13 22:14:14;;;;;;;2.90;2.70;;;;;;;-1.56;98.90;97480.22;10193729;28;20030;-57
2022/12/13 22:19:14;;;;;;;9.38;4.40;;;;;;;-1.56;98.98;97475.13;10204240;28;20477;-57
2022/12/13 22:24:13;;;;;;;1.60;1.50;;;;;;;-1.68;98.74;97468.75;10221679;28;20076;-57
2022/12/13 22:29:12;;;;;;;2.92;2.72;;;;;;;-1.63;99.04;97466.41;10206275;28;20065;-58
2022/12/13 22:34:11;;;;;;;6.55;4.43;;;;;;;-1.55;98.60;97464.16;10205073;28;20058;-57
2022/12/13 22:39:15;;;;;;;2.28;2.10;;;;;;;-1.49;99.07;97457.66;10207700;28;20035;-57
2022/12/13 22:44:16;;;;;;;2.28;2.17;;;;;;;-1.44;98.60;97470.59;10188296;28;20062;-57
2022/12/13 22:49:15;;;;;;;14.88;4.07;;;;;;;-1.39;98.62;97455.50;10192394;28;20130;-58
2022/12/13 22:54:14;;;;;;;1.80;1.73;;;;;;;-1.35;98.91;97455.69;10208506;28;20058;-57
2022/12/13 22:59:13;;;;;;;6.53;5.53;;;;;;;-1.50;99.12;97460.13;10212598;28;20085;-58
2022/12/13 23:04:12;;;;;;;1.20;1.17;;;;;;;-1.61;99.03;97469.00;10212231;28;20084;-57
2022/12/13 23:09:13;;;;;;;2.72;2.50;;;;;;;-1.62;99.31;97469.81;10201234;28;20043;-61
2022/12/13 23:14:14;;;;;;;2.97;2.83;;;;;;;-1.61;99.42;97481.72;10192150;28;20181;-57
2022/12/13 23:19:15;;;;;;;4.35;2.58;;;;;;;-1.59;99.04;97475.03;10185365;28;20126;-57
2022/12/13 23:24:14;;;;;;;2.72;2.22;;;;;;;-1.59;98.99;97480.09;10175680;29;20077;-57
2022/12/13 23:29:13;;;;;;;3.47;1.92;;;;;;;-1.49;98.75;97470.38;10177554;28;20977;-57